sensor_id;sensor_type;location;lat;lon;timestamp;P1;durP1;ratioP1;P2;durP2;ratioP2
28822;SDS011;15961;54.678;9.110;2022-08-20T07:10:31;15.50;;;8.90;;
28822;SDS011;15961;54.678;9.110;2022-08-20T07:12:57;11.55;;;7.35;;
28822;SDS011;15961;54.678;9.110;2022-08-20T07:15:25;15.05;;;7.10;;
28822;SDS011;15961;54.678;9.110;2022-08-20T07:17:55;14.23;;;6.60;;
28822;SDS011;15961;54.678;9.110;2022-08-20T07:20:22;11.07;;;5.90;;
28822;SDS011;15961;54.678;9.110;2022-08-20T07:22:48;11.95;;;6.10;;
28822;SDS011;15961;54.678;9.110;2022-08-20T07:25:15;15.70;;;5.55;;
28822;SDS011;15961;54.678;9.110;2022-08-20T07:27:42;13.18;;;5.72;;
28822;SDS011;15961;54.678;9.110;2022-08-20T07:30:10;15.77;;;4.03;;
28822;SDS011;15961;54.678;9.110;2022-08-20T07:32:58;8.23;;;3.60;;
28822;SDS011;15961;54.678;9.110;2022-08-20T07:35:24;17.63;;;4.32;;
28822;SDS011;15961;54.678;9.110;2022-08-20T07:37:50;10.77;;;3.13;;
28822;SDS011;15961;54.678;9.110;2022-08-20T07:40:21;14.60;;;4.03;;
28822;SDS011;15961;54.678;9.110;2022-08-20T07:42:51;12.25;;;3.05;;
28822;SDS011;15961;54.678;9.110;2022-08-20T07:47:49;15.55;;;3.05;;
28822;SDS011;15961;54.678;9.110;2022-08-20T07:50:18;12.82;;;2.67;;
28822;SDS011;15961;54.678;9.110;2022-08-20T07:52:46;15.48;;;3.45;;
28822;SDS011;15961;54.678;9.110;2022-08-20T07:55:13;17.20;;;3.10;;
28822;SDS011;15961;54.678;9.110;2022-08-20T07:57:40;14.60;;;2.70;;
28822;SDS011;15961;54.678;9.110;2022-08-20T08:00:10;14.82;;;2.85;;
28822;SDS011;15961;54.678;9.110;2022-08-20T08:02:38;16.52;;;3.38;;
28822;SDS011;15961;54.678;9.110;2022-08-20T08:05:03;15.23;;;2.83;;
28822;SDS011;15961;54.678;9.110;2022-08-20T08:07:30;13.75;;;4.15;;
28822;SDS011;15961;54.678;9.110;2022-08-20T08:09:56;13.18;;;3.10;;
28822;SDS011;15961;54.678;9.110;2022-08-20T08:12:22;15.65;;;2.97;;
28822;SDS011;15961;54.678;9.110;2022-08-20T08:14:52;12.13;;;3.72;;
28822;SDS011;15961;54.678;9.110;2022-08-20T08:17:19;12.10;;;2.65;;
28822;SDS011;15961;54.678;9.110;2022-08-20T08:19:46;11.13;;;2.53;;
28822;SDS011;15961;54.678;9.110;2022-08-20T08:22:14;14.73;;;2.60;;
28822;SDS011;15961;54.678;9.110;2022-08-20T08:24:42;13.18;;;2.80;;
28822;SDS011;15961;54.678;9.110;2022-08-20T08:27:11;24.23;;;2.83;;
28822;SDS011;15961;54.678;9.110;2022-08-20T08:29:43;11.93;;;2.85;;
28822;SDS011;15961;54.678;9.110;2022-08-20T08:32:09;17.83;;;3.80;;
28822;SDS011;15961;54.678;9.110;2022-08-20T08:34:35;15.50;;;2.78;;
28822;SDS011;15961;54.678;9.110;2022-08-20T08:37:02;7.95;;;2.05;;
28822;SDS011;15961;54.678;9.110;2022-08-20T08:39:31;9.40;;;2.00;;
28822;SDS011;15961;54.678;9.110;2022-08-20T08:41:57;9.77;;;2.47;;
28822;SDS011;15961;54.678;9.110;2022-08-20T08:44:35;9.95;;;2.03;;
28822;SDS011;15961;54.678;9.110;2022-08-20T08:47:25;13.73;;;2.83;;
28822;SDS011;15961;54.678;9.110;2022-08-20T08:49:53;12.30;;;2.40;;
28822;SDS011;15961;54.678;9.110;2022-08-20T08:52:21;10.07;;;2.45;;
28822;SDS011;15961;54.678;9.110;2022-08-20T08:54:50;9.45;;;2.33;;
28822;SDS011;15961;54.678;9.110;2022-08-20T08:57:18;18.95;;;2.95;;
28822;SDS011;15961;54.678;9.110;2022-08-20T08:59:45;11.18;;;2.65;;
28822;SDS011;15961;54.678;9.110;2022-08-20T09:02:17;13.82;;;2.65;;
28822;SDS011;15961;54.678;9.110;2022-08-20T09:04:53;12.57;;;2.67;;
28822;SDS011;15961;54.678;9.110;2022-08-20T09:07:22;10.07;;;2.70;;
28822;SDS011;15961;54.678;9.110;2022-08-20T09:09:50;11.35;;;2.60;;
28822;SDS011;15961;54.678;9.110;2022-08-20T09:12:17;13.73;;;2.20;;
28822;SDS011;15961;54.678;9.110;2022-08-20T09:14:46;14.05;;;2.05;;
28822;SDS011;15961;54.678;9.110;2022-08-20T09:17:13;12.95;;;2.70;;
28822;SDS011;15961;54.678;9.110;2022-08-20T09:19:40;7.50;;;1.80;;
28822;SDS011;15961;54.678;9.110;2022-08-20T09:22:06;6.40;;;1.65;;
28822;SDS011;15961;54.678;9.110;2022-08-20T09:24:33;9.88;;;1.48;;
28822;SDS011;15961;54.678;9.110;2022-08-20T09:26:59;11.75;;;1.95;;
28822;SDS011;15961;54.678;9.110;2022-08-20T09:29:24;13.23;;;2.35;;
28822;SDS011;15961;54.678;9.110;2022-08-20T09:31:50;8.13;;;2.25;;
28822;SDS011;15961;54.678;9.110;2022-08-20T09:34:15;11.02;;;2.28;;
28822;SDS011;15961;54.678;9.110;2022-08-20T09:36:41;9.52;;;2.10;;
28822;SDS011;15961;54.678;9.110;2022-08-20T09:39:06;10.48;;;2.25;;
28822;SDS011;15961;54.678;9.110;2022-08-20T09:41:33;10.90;;;1.55;;
28822;SDS011;15961;54.678;9.110;2022-08-20T09:43:59;5.72;;;1.95;;
28822;SDS011;15961;54.678;9.110;2022-08-20T09:46:25;15.98;;;2.55;;
28822;SDS011;15961;54.678;9.110;2022-08-20T09:48:50;8.82;;;2.50;;
28822;SDS011;15961;54.678;9.110;2022-08-20T09:51:16;15.18;;;2.30;;
28822;SDS011;15961;54.678;9.110;2022-08-20T09:53:46;13.32;;;2.20;;
28822;SDS011;15961;54.678;9.110;2022-08-20T09:56:12;6.78;;;2.15;;
28822;SDS011;15961;54.678;9.110;2022-08-20T09:58:44;8.68;;;2.30;;
28822;SDS011;15961;54.678;9.110;2022-08-20T10:01:14;9.63;;;2.13;;
28822;SDS011;15961;54.678;9.110;2022-08-20T10:03:42;13.02;;;2.30;;
28822;SDS011;15961;54.678;9.110;2022-08-20T10:06:11;15.00;;;2.20;;
28822;SDS011;15961;54.678;9.110;2022-08-20T10:08:38;14.02;;;2.50;;
28822;SDS011;15961;54.678;9.110;2022-08-20T10:11:04;8.65;;;1.95;;
28822;SDS011;15961;54.678;9.110;2022-08-20T10:13:30;10.77;;;2.05;;
28822;SDS011;15961;54.678;9.110;2022-08-20T10:15:55;10.57;;;2.33;;
28822;SDS011;15961;54.678;9.110;2022-08-20T10:18:21;15.27;;;3.08;;
28822;SDS011;15961;54.678;9.110;2022-08-20T10:20:47;12.40;;;2.63;;
28822;SDS011;15961;54.678;9.110;2022-08-20T10:23:12;7.85;;;2.10;;
28822;SDS011;15961;54.678;9.110;2022-08-20T10:25:38;8.98;;;2.20;;
28822;SDS011;15961;54.678;9.110;2022-08-20T10:28:05;10.43;;;2.00;;
28822;SDS011;15961;54.678;9.110;2022-08-20T10:30:31;11.20;;;2.65;;
28822;SDS011;15961;54.678;9.110;2022-08-20T10:32:57;10.27;;;1.92;;
28822;SDS011;15961;54.678;9.110;2022-08-20T10:35:22;14.82;;;2.00;;
28822;SDS011;15961;54.678;9.110;2022-08-20T10:37:48;10.90;;;2.70;;
28822;SDS011;15961;54.678;9.110;2022-08-20T10:40:13;10.13;;;2.42;;
28822;SDS011;15961;54.678;9.110;2022-08-20T10:42:39;6.93;;;1.83;;
28822;SDS011;15961;54.678;9.110;2022-08-20T10:45:07;11.05;;;2.80;;
28822;SDS011;15961;54.678;9.110;2022-08-20T10:47:33;13.15;;;2.67;;
28822;SDS011;15961;54.678;9.110;2022-08-20T10:50:00;10.25;;;2.30;;
28822;SDS011;15961;54.678;9.110;2022-08-20T10:52:29;12.40;;;2.13;;
28822;SDS011;15961;54.678;9.110;2022-08-20T10:54:54;9.43;;;1.88;;
28822;SDS011;15961;54.678;9.110;2022-08-20T10:57:21;8.75;;;2.15;;
28822;SDS011;15961;54.678;9.110;2022-08-20T10:59:52;15.88;;;1.45;;
28822;SDS011;15961;54.678;9.110;2022-08-20T11:02:20;7.10;;;1.92;;
28822;SDS011;15961;54.678;9.110;2022-08-20T11:04:46;12.98;;;2.40;;
28822;SDS011;15961;54.678;9.110;2022-08-20T11:09:38;8.35;;;2.38;;
28822;SDS011;15961;54.678;9.110;2022-08-20T11:12:04;11.13;;;2.13;;
28822;SDS011;15961;54.678;9.110;2022-08-20T11:14:30;6.68;;;1.83;;
28822;SDS011;15961;54.678;9.110;2022-08-20T11:16:55;8.77;;;1.88;;
28822;SDS011;15961;54.678;9.110;2022-08-20T11:19:21;14.38;;;2.03;;
28822;SDS011;15961;54.678;9.110;2022-08-20T11:21:46;9.52;;;1.95;;
28822;SDS011;15961;54.678;9.110;2022-08-20T11:24:12;6.90;;;1.98;;
28822;SDS011;15961;54.678;9.110;2022-08-20T11:26:37;9.40;;;2.00;;
28822;SDS011;15961;54.678;9.110;2022-08-20T11:29:04;10.60;;;1.98;;
28822;SDS011;15961;54.678;9.110;2022-08-20T11:31:29;7.15;;;1.50;;
28822;SDS011;15961;54.678;9.110;2022-08-20T11:33:55;11.35;;;1.65;;
28822;SDS011;15961;54.678;9.110;2022-08-20T11:36:20;7.63;;;1.83;;
28822;SDS011;15961;54.678;9.110;2022-08-20T11:38:50;7.40;;;1.92;;
28822;SDS011;15961;54.678;9.110;2022-08-20T11:41:16;5.22;;;1.70;;
28822;SDS011;15961;54.678;9.110;2022-08-20T11:43:42;7.30;;;1.50;;
28822;SDS011;15961;54.678;9.110;2022-08-20T11:46:07;6.60;;;1.42;;
28822;SDS011;15961;54.678;9.110;2022-08-20T11:48:33;9.45;;;1.42;;
28822;SDS011;15961;54.678;9.110;2022-08-20T11:50:59;7.38;;;1.63;;
28822;SDS011;15961;54.678;9.110;2022-08-20T11:53:25;7.50;;;1.85;;
28822;SDS011;15961;54.678;9.110;2022-08-20T11:55:50;7.30;;;2.08;;
28822;SDS011;15961;54.678;9.110;2022-08-20T11:58:16;4.85;;;1.45;;
28822;SDS011;15961;54.678;9.110;2022-08-20T12:00:42;6.05;;;1.85;;
28822;SDS011;15961;54.678;9.110;2022-08-20T12:03:08;6.43;;;1.85;;
28822;SDS011;15961;54.678;9.110;2022-08-20T12:05:34;8.35;;;2.00;;
28822;SDS011;15961;54.678;9.110;2022-08-20T12:08:00;6.57;;;1.40;;
28822;SDS011;15961;54.678;9.110;2022-08-20T12:10:27;9.45;;;1.90;;
28822;SDS011;15961;54.678;9.110;2022-08-20T12:12:53;9.65;;;1.50;;
28822;SDS011;15961;54.678;9.110;2022-08-20T12:15:19;7.65;;;1.73;;
28822;SDS011;15961;54.678;9.110;2022-08-20T12:17:45;4.57;;;1.70;;
28822;SDS011;15961;54.678;9.110;2022-08-20T12:20:11;8.95;;;1.80;;
28822;SDS011;15961;54.678;9.110;2022-08-20T12:22:39;9.43;;;2.20;;
28822;SDS011;15961;54.678;9.110;2022-08-20T12:25:05;8.50;;;1.52;;
28822;SDS011;15961;54.678;9.110;2022-08-20T12:27:32;16.15;;;2.00;;
28822;SDS011;15961;54.678;9.110;2022-08-20T12:30:00;10.90;;;1.70;;
28822;SDS011;15961;54.678;9.110;2022-08-20T12:32:28;14.93;;;2.00;;
28822;SDS011;15961;54.678;9.110;2022-08-20T12:34:55;6.22;;;1.63;;
28822;SDS011;15961;54.678;9.110;2022-08-20T12:37:22;8.35;;;2.42;;
28822;SDS011;15961;54.678;9.110;2022-08-20T12:39:51;9.27;;;1.80;;
28822;SDS011;15961;54.678;9.110;2022-08-20T12:42:18;8.77;;;1.80;;
28822;SDS011;15961;54.678;9.110;2022-08-20T12:44:44;5.20;;;1.50;;
28822;SDS011;15961;54.678;9.110;2022-08-20T12:49:50;9.38;;;1.48;;
28822;SDS011;15961;54.678;9.110;2022-08-20T12:52:24;12.30;;;2.40;;
28822;SDS011;15961;54.678;9.110;2022-08-20T12:54:51;9.07;;;1.80;;
28822;SDS011;15961;54.678;9.110;2022-08-20T12:57:35;4.97;;;1.33;;
28822;SDS011;15961;54.678;9.110;2022-08-20T13:00:08;5.05;;;1.33;;
28822;SDS011;15961;54.678;9.110;2022-08-20T13:02:45;3.17;;;1.20;;
28822;SDS011;15961;54.678;9.110;2022-08-20T13:05:12;5.43;;;1.55;;
28822;SDS011;15961;54.678;9.110;2022-08-20T13:07:39;6.15;;;1.55;;
28822;SDS011;15961;54.678;9.110;2022-08-20T13:10:06;4.93;;;1.98;;
28822;SDS011;15961;54.678;9.110;2022-08-20T13:12:33;10.68;;;1.60;;
28822;SDS011;15961;54.678;9.110;2022-08-20T13:14:59;14.10;;;1.70;;
28822;SDS011;15961;54.678;9.110;2022-08-20T13:17:25;5.72;;;1.60;;
28822;SDS011;15961;54.678;9.110;2022-08-20T13:19:50;5.18;;;1.65;;
28822;SDS011;15961;54.678;9.110;2022-08-20T13:22:16;6.40;;;1.77;;
28822;SDS011;15961;54.678;9.110;2022-08-20T13:24:42;10.15;;;2.55;;
28822;SDS011;15961;54.678;9.110;2022-08-20T13:27:09;6.45;;;1.73;;
28822;SDS011;15961;54.678;9.110;2022-08-20T13:29:37;5.57;;;1.77;;
28822;SDS011;15961;54.678;9.110;2022-08-20T13:32:09;6.70;;;1.83;;
28822;SDS011;15961;54.678;9.110;2022-08-20T13:34:34;6.00;;;1.42;;
28822;SDS011;15961;54.678;9.110;2022-08-20T13:37:00;6.80;;;2.05;;
28822;SDS011;15961;54.678;9.110;2022-08-20T13:39:26;14.50;;;2.22;;
28822;SDS011;15961;54.678;9.110;2022-08-20T13:41:52;7.35;;;1.70;;
28822;SDS011;15961;54.678;9.110;2022-08-20T13:44:17;4.65;;;1.38;;
28822;SDS011;15961;54.678;9.110;2022-08-20T13:46:43;8.27;;;1.77;;
28822;SDS011;15961;54.678;9.110;2022-08-20T13:49:09;9.50;;;2.05;;
28822;SDS011;15961;54.678;9.110;2022-08-20T13:51:34;11.73;;;1.90;;
28822;SDS011;15961;54.678;9.110;2022-08-20T13:54:00;10.48;;;2.30;;
28822;SDS011;15961;54.678;9.110;2022-08-20T13:56:25;6.15;;;1.55;;
28822;SDS011;15961;54.678;9.110;2022-08-20T13:58:51;8.00;;;1.25;;
28822;SDS011;15961;54.678;9.110;2022-08-20T14:01:16;5.97;;;1.70;;
28822;SDS011;15961;54.678;9.110;2022-08-20T14:03:42;9.77;;;1.80;;
28822;SDS011;15961;54.678;9.110;2022-08-20T14:06:08;10.27;;;2.13;;
28822;SDS011;15961;54.678;9.110;2022-08-20T14:08:34;12.70;;;1.85;;
28822;SDS011;15961;54.678;9.110;2022-08-20T14:11:00;12.30;;;2.28;;
28822;SDS011;15961;54.678;9.110;2022-08-20T14:13:26;8.27;;;1.80;;
28822;SDS011;15961;54.678;9.110;2022-08-20T14:15:52;5.60;;;2.20;;
28822;SDS011;15961;54.678;9.110;2022-08-20T14:18:18;9.48;;;1.55;;
28822;SDS011;15961;54.678;9.110;2022-08-20T14:20:44;6.40;;;1.92;;
28822;SDS011;15961;54.678;9.110;2022-08-20T14:23:10;10.43;;;1.83;;
28822;SDS011;15961;54.678;9.110;2022-08-20T14:25:36;8.80;;;2.17;;
28822;SDS011;15961;54.678;9.110;2022-08-20T14:28:12;8.80;;;1.67;;
28822;SDS011;15961;54.678;9.110;2022-08-20T14:30:48;10.65;;;1.70;;
28822;SDS011;15961;54.678;9.110;2022-08-20T14:33:14;7.05;;;2.53;;
28822;SDS011;15961;54.678;9.110;2022-08-20T14:35:40;7.82;;;1.92;;
28822;SDS011;15961;54.678;9.110;2022-08-20T14:38:06;17.05;;;2.20;;
28822;SDS011;15961;54.678;9.110;2022-08-20T14:40:32;10.32;;;2.50;;
28822;SDS011;15961;54.678;9.110;2022-08-20T14:42:58;13.32;;;2.35;;
28822;SDS011;15961;54.678;9.110;2022-08-20T14:45:24;9.40;;;1.77;;
28822;SDS011;15961;54.678;9.110;2022-08-20T14:47:51;20.30;;;2.13;;
28822;SDS011;15961;54.678;9.110;2022-08-20T14:50:22;6.97;;;1.60;;
28822;SDS011;15961;54.678;9.110;2022-08-20T14:52:52;5.18;;;1.55;;
28822;SDS011;15961;54.678;9.110;2022-08-20T14:55:18;14.65;;;2.58;;
28822;SDS011;15961;54.678;9.110;2022-08-20T14:57:46;5.63;;;1.45;;
28822;SDS011;15961;54.678;9.110;2022-08-20T15:00:13;7.65;;;1.63;;
28822;SDS011;15961;54.678;9.110;2022-08-20T15:02:44;12.13;;;1.92;;
28822;SDS011;15961;54.678;9.110;2022-08-20T15:05:10;6.97;;;2.13;;
28822;SDS011;15961;54.678;9.110;2022-08-20T15:07:39;8.10;;;1.98;;
28822;SDS011;15961;54.678;9.110;2022-08-20T15:10:08;7.35;;;1.40;;
28822;SDS011;15961;54.678;9.110;2022-08-20T15:12:41;7.47;;;1.55;;
28822;SDS011;15961;54.678;9.110;2022-08-20T15:15:07;13.23;;;1.67;;
28822;SDS011;15961;54.678;9.110;2022-08-20T15:17:35;5.13;;;1.15;;
28822;SDS011;15961;54.678;9.110;2022-08-20T15:20:04;8.73;;;1.75;;
28822;SDS011;15961;54.678;9.110;2022-08-20T15:22:35;6.60;;;1.83;;
28822;SDS011;15961;54.678;9.110;2022-08-20T15:25:05;8.85;;;1.63;;
28822;SDS011;15961;54.678;9.110;2022-08-20T15:27:32;6.97;;;1.80;;
28822;SDS011;15961;54.678;9.110;2022-08-20T15:30:00;5.13;;;1.35;;
28822;SDS011;15961;54.678;9.110;2022-08-20T15:32:29;7.47;;;1.40;;
28822;SDS011;15961;54.678;9.110;2022-08-20T15:34:54;4.53;;;1.40;;
28822;SDS011;15961;54.678;9.110;2022-08-20T15:37:21;9.90;;;1.50;;
28822;SDS011;15961;54.678;9.110;2022-08-20T15:39:48;6.63;;;1.48;;
28822;SDS011;15961;54.678;9.110;2022-08-20T15:42:15;3.33;;;1.05;;
28822;SDS011;15961;54.678;9.110;2022-08-20T15:44:41;9.32;;;2.20;;
28822;SDS011;15961;54.678;9.110;2022-08-20T15:47:27;6.90;;;1.73;;
28822;SDS011;15961;54.678;9.110;2022-08-20T15:49:58;5.93;;;1.48;;
28822;SDS011;15961;54.678;9.110;2022-08-20T15:52:29;11.98;;;1.83;;
28822;SDS011;15961;54.678;9.110;2022-08-20T15:54:57;9.52;;;1.63;;
28822;SDS011;15961;54.678;9.110;2022-08-20T15:57:43;5.68;;;1.42;;
28822;SDS011;15961;54.678;9.110;2022-08-20T16:00:25;8.27;;;1.60;;
28822;SDS011;15961;54.678;9.110;2022-08-20T16:06:00;4.95;;;1.80;;
28822;SDS011;15961;54.678;9.110;2022-08-20T16:14:20;4.50;;;1.02;;
28822;SDS011;15961;54.678;9.110;2022-08-20T16:16:53;9.90;;;2.20;;
28822;SDS011;15961;54.678;9.110;2022-08-20T16:19:26;8.98;;;1.80;;
28822;SDS011;15961;54.678;9.110;2022-08-20T16:21:56;11.20;;;1.95;;
28822;SDS011;15961;54.678;9.110;2022-08-20T16:24:22;6.78;;;1.60;;
28822;SDS011;15961;54.678;9.110;2022-08-20T16:32:29;4.30;;;1.60;;
28822;SDS011;15961;54.678;9.110;2022-08-20T16:38:13;9.15;;;1.83;;
28822;SDS011;15961;54.678;9.110;2022-08-20T16:41:01;11.02;;;1.73;;
28822;SDS011;15961;54.678;9.110;2022-08-20T16:43:51;14.48;;;2.30;;
28822;SDS011;15961;54.678;9.110;2022-08-20T16:46:24;8.63;;;1.80;;
28822;SDS011;15961;54.678;9.110;2022-08-20T16:48:57;7.55;;;1.95;;
28822;SDS011;15961;54.678;9.110;2022-08-20T16:51:28;7.78;;;1.42;;
28822;SDS011;15961;54.678;9.110;2022-08-20T16:54:00;10.20;;;1.88;;
28822;SDS011;15961;54.678;9.110;2022-08-20T16:56:31;14.18;;;2.17;;
28822;SDS011;15961;54.678;9.110;2022-08-20T16:59:00;12.07;;;1.75;;
28822;SDS011;15961;54.678;9.110;2022-08-20T17:01:30;7.18;;;2.30;;
28822;SDS011;15961;54.678;9.110;2022-08-20T17:03:56;12.07;;;1.80;;
28822;SDS011;15961;54.678;9.110;2022-08-20T17:06:38;5.85;;;2.05;;
28822;SDS011;15961;54.678;9.110;2022-08-20T17:09:12;6.78;;;1.60;;
28822;SDS011;15961;54.678;9.110;2022-08-20T17:11:39;4.82;;;1.50;;
28822;SDS011;15961;54.678;9.110;2022-08-20T17:14:07;11.88;;;2.25;;
28822;SDS011;15961;54.678;9.110;2022-08-20T17:16:37;10.77;;;1.58;;
28822;SDS011;15961;54.678;9.110;2022-08-20T17:21:53;10.00;;;1.73;;
28822;SDS011;15961;54.678;9.110;2022-08-20T17:24:22;8.80;;;1.85;;
28822;SDS011;15961;54.678;9.110;2022-08-20T17:27:00;9.23;;;2.25;;
28822;SDS011;15961;54.678;9.110;2022-08-20T17:29:33;10.45;;;1.52;;
28822;SDS011;15961;54.678;9.110;2022-08-20T17:32:15;9.57;;;2.30;;
28822;SDS011;15961;54.678;9.110;2022-08-20T17:34:45;13.07;;;2.30;;
28822;SDS011;15961;54.678;9.110;2022-08-20T17:39:45;8.05;;;1.83;;
28822;SDS011;15961;54.678;9.110;2022-08-20T17:42:19;11.52;;;1.73;;
28822;SDS011;15961;54.678;9.110;2022-08-20T17:45:22;10.07;;;2.20;;
28822;SDS011;15961;54.678;9.110;2022-08-20T17:47:45;9.90;;;2.03;;
28822;SDS011;15961;54.678;9.110;2022-08-20T17:50:12;7.80;;;1.60;;
28822;SDS011;15961;54.678;9.110;2022-08-20T17:52:45;10.35;;;1.95;;
28822;SDS011;15961;54.678;9.110;2022-08-20T17:55:16;8.38;;;2.45;;
28822;SDS011;15961;54.678;9.110;2022-08-20T17:57:43;14.25;;;2.20;;
28822;SDS011;15961;54.678;9.110;2022-08-20T18:00:12;7.72;;;1.98;;
28822;SDS011;15961;54.678;9.110;2022-08-20T18:02:50;8.95;;;2.17;;
28822;SDS011;15961;54.678;9.110;2022-08-20T18:05:24;15.02;;;2.92;;
28822;SDS011;15961;54.678;9.110;2022-08-20T18:10:21;10.95;;;2.47;;
28822;SDS011;15961;54.678;9.110;2022-08-20T18:13:08;8.35;;;2.55;;
28822;SDS011;15961;54.678;9.110;2022-08-20T18:15:39;9.65;;;2.13;;
28822;SDS011;15961;54.678;9.110;2022-08-20T18:23:44;10.63;;;2.58;;
28822;SDS011;15961;54.678;9.110;2022-08-20T18:26:34;10.63;;;2.22;;
28822;SDS011;15961;54.678;9.110;2022-08-20T18:29:15;11.75;;;2.83;;
28822;SDS011;15961;54.678;9.110;2022-08-20T18:34:21;7.00;;;2.17;;
28822;SDS011;15961;54.678;9.110;2022-08-20T18:37:00;8.30;;;2.03;;
28822;SDS011;15961;54.678;9.110;2022-08-20T18:39:49;5.35;;;1.80;;
28822;SDS011;15961;54.678;9.110;2022-08-20T18:44:45;6.72;;;1.95;;
28822;SDS011;15961;54.678;9.110;2022-08-20T18:52:32;8.77;;;2.10;;
28822;SDS011;15961;54.678;9.110;2022-08-20T18:55:01;3.92;;;1.50;;
28822;SDS011;15961;54.678;9.110;2022-08-20T18:57:36;5.45;;;1.75;;
28822;SDS011;15961;54.678;9.110;2022-08-20T19:00:18;6.05;;;1.60;;
28822;SDS011;15961;54.678;9.110;2022-08-20T19:08:08;7.82;;;2.45;;
28822;SDS011;15961;54.678;9.110;2022-08-20T19:11:00;9.68;;;2.22;;
28822;SDS011;15961;54.678;9.110;2022-08-20T19:16:39;8.00;;;1.92;;
28822;SDS011;15961;54.678;9.110;2022-08-20T19:19:16;6.97;;;1.80;;
28822;SDS011;15961;54.678;9.110;2022-08-20T19:21:45;6.10;;;2.22;;
28822;SDS011;15961;54.678;9.110;2022-08-20T19:24:12;4.88;;;1.65;;
28822;SDS011;15961;54.678;9.110;2022-08-20T19:26:43;7.13;;;1.92;;
28822;SDS011;15961;54.678;9.110;2022-08-20T19:29:14;7.90;;;1.90;;
28822;SDS011;15961;54.678;9.110;2022-08-20T19:31:45;7.80;;;1.80;;
28822;SDS011;15961;54.678;9.110;2022-08-20T19:34:18;6.55;;;1.83;;
28822;SDS011;15961;54.678;9.110;2022-08-20T19:36:51;10.73;;;2.40;;
28822;SDS011;15961;54.678;9.110;2022-08-20T19:39:37;7.45;;;2.25;;
28822;SDS011;15961;54.678;9.110;2022-08-20T19:44:34;5.97;;;2.10;;
28822;SDS011;15961;54.678;9.110;2022-08-20T19:47:04;9.23;;;2.22;;
28822;SDS011;15961;54.678;9.110;2022-08-20T19:54:57;5.68;;;2.13;;
28822;SDS011;15961;54.678;9.110;2022-08-20T19:57:23;9.07;;;2.38;;
28822;SDS011;15961;54.678;9.110;2022-08-20T19:59:55;8.68;;;2.45;;
28822;SDS011;15961;54.678;9.110;2022-08-20T20:02:23;7.67;;;2.60;;
28822;SDS011;15961;54.678;9.110;2022-08-20T20:04:51;10.85;;;2.60;;
28822;SDS011;15961;54.678;9.110;2022-08-20T20:07:32;9.10;;;2.85;;
28822;SDS011;15961;54.678;9.110;2022-08-20T20:10:01;10.68;;;2.83;;
28822;SDS011;15961;54.678;9.110;2022-08-20T20:12:31;9.82;;;2.75;;
28822;SDS011;15961;54.678;9.110;2022-08-20T20:14:58;11.50;;;2.72;;
28822;SDS011;15961;54.678;9.110;2022-08-20T20:17:26;7.47;;;2.25;;
28822;SDS011;15961;54.678;9.110;2022-08-20T20:19:57;6.35;;;2.55;;
28822;SDS011;15961;54.678;9.110;2022-08-20T20:22:28;9.18;;;2.83;;
28822;SDS011;15961;54.678;9.110;2022-08-20T20:27:30;5.38;;;2.38;;
28822;SDS011;15961;54.678;9.110;2022-08-20T20:30:03;7.03;;;2.78;;
28822;SDS011;15961;54.678;9.110;2022-08-20T20:32:31;13.77;;;3.78;;
28822;SDS011;15961;54.678;9.110;2022-08-20T20:34:59;9.10;;;2.35;;
28822;SDS011;15961;54.678;9.110;2022-08-20T20:37:34;6.75;;;2.38;;
28822;SDS011;15961;54.678;9.110;2022-08-20T20:40:02;11.30;;;3.95;;
28822;SDS011;15961;54.678;9.110;2022-08-20T20:42:34;9.00;;;3.08;;
28822;SDS011;15961;54.678;9.110;2022-08-20T20:45:00;7.88;;;3.50;;
28822;SDS011;15961;54.678;9.110;2022-08-20T20:47:38;11.20;;;2.90;;
28822;SDS011;15961;54.678;9.110;2022-08-20T20:50:05;7.88;;;3.20;;
28822;SDS011;15961;54.678;9.110;2022-08-20T20:52:35;9.23;;;2.90;;
28822;SDS011;15961;54.678;9.110;2022-08-20T20:55:13;9.80;;;2.60;;
28822;SDS011;15961;54.678;9.110;2022-08-20T20:57:47;15.90;;;4.10;;
28822;SDS011;15961;54.678;9.110;2022-08-20T21:00:15;6.38;;;2.63;;
28822;SDS011;15961;54.678;9.110;2022-08-20T21:02:42;11.05;;;3.10;;
28822;SDS011;15961;54.678;9.110;2022-08-20T21:05:11;19.27;;;4.68;;
28822;SDS011;15961;54.678;9.110;2022-08-20T21:07:45;12.82;;;4.45;;
28822;SDS011;15961;54.678;9.110;2022-08-20T21:10:13;16.50;;;5.00;;
28822;SDS011;15961;54.678;9.110;2022-08-20T21:12:40;12.32;;;3.78;;
28822;SDS011;15961;54.678;9.110;2022-08-20T21:15:05;10.77;;;3.88;;
28822;SDS011;15961;54.678;9.110;2022-08-20T21:17:32;18.48;;;4.47;;
28822;SDS011;15961;54.678;9.110;2022-08-20T21:19:57;10.52;;;4.45;;
28822;SDS011;15961;54.678;9.110;2022-08-20T21:22:26;17.70;;;5.65;;
28822;SDS011;15961;54.678;9.110;2022-08-20T21:24:52;16.17;;;5.15;;
28822;SDS011;15961;54.678;9.110;2022-08-20T21:27:19;13.63;;;4.97;;
28822;SDS011;15961;54.678;9.110;2022-08-20T21:29:47;6.45;;;3.53;;
28822;SDS011;15961;54.678;9.110;2022-08-20T21:32:12;10.10;;;4.60;;
28822;SDS011;15961;54.678;9.110;2022-08-20T21:34:40;9.13;;;3.78;;
28822;SDS011;15961;54.678;9.110;2022-08-20T21:37:05;10.90;;;4.32;;
28822;SDS011;15961;54.678;9.110;2022-08-20T21:39:31;4.88;;;3.30;;
28822;SDS011;15961;54.678;9.110;2022-08-20T21:41:57;12.63;;;3.92;;
28822;SDS011;15961;54.678;9.110;2022-08-20T21:44:26;5.78;;;3.47;;
28822;SDS011;15961;54.678;9.110;2022-08-20T21:46:53;10.38;;;3.58;;
28822;SDS011;15961;54.678;9.110;2022-08-20T21:49:19;8.93;;;3.67;;
28822;SDS011;15961;54.678;9.110;2022-08-20T21:51:46;7.13;;;3.63;;
28822;SDS011;15961;54.678;9.110;2022-08-20T21:54:13;6.10;;;3.25;;
28822;SDS011;15961;54.678;9.110;2022-08-20T21:56:38;9.43;;;4.00;;
28822;SDS011;15961;54.678;9.110;2022-08-20T21:59:05;12.20;;;3.70;;
28822;SDS011;15961;54.678;9.110;2022-08-20T22:01:33;12.73;;;5.15;;
28822;SDS011;15961;54.678;9.110;2022-08-20T22:04:00;11.75;;;4.53;;
28822;SDS011;15961;54.678;9.110;2022-08-20T22:06:26;11.45;;;3.97;;
28822;SDS011;15961;54.678;9.110;2022-08-20T22:08:52;12.52;;;3.92;;
28822;SDS011;15961;54.678;9.110;2022-08-20T22:11:17;14.05;;;4.80;;
28822;SDS011;15961;54.678;9.110;2022-08-20T22:13:43;21.70;;;7.03;;
28822;SDS011;15961;54.678;9.110;2022-08-20T22:16:10;13.45;;;4.72;;
28822;SDS011;15961;54.678;9.110;2022-08-20T22:18:38;11.80;;;5.15;;
28822;SDS011;15961;54.678;9.110;2022-08-20T22:21:05;8.90;;;4.57;;
28822;SDS011;15961;54.678;9.110;2022-08-20T22:23:33;8.60;;;4.07;;
28822;SDS011;15961;54.678;9.110;2022-08-20T22:25:59;10.27;;;3.78;;
28822;SDS011;15961;54.678;9.110;2022-08-20T22:28:25;14.70;;;5.45;;
28822;SDS011;15961;54.678;9.110;2022-08-20T22:30:51;11.40;;;5.68;;
28822;SDS011;15961;54.678;9.110;2022-08-20T22:33:19;11.98;;;5.03;;
28822;SDS011;15961;54.678;9.110;2022-08-20T22:35:48;15.63;;;6.15;;
28822;SDS011;15961;54.678;9.110;2022-08-20T22:38:15;10.18;;;5.68;;
28822;SDS011;15961;54.678;9.110;2022-08-20T22:40:41;8.77;;;5.20;;
28822;SDS011;15961;54.678;9.110;2022-08-20T22:43:07;14.75;;;6.53;;
28822;SDS011;15961;54.678;9.110;2022-08-20T22:45:32;15.07;;;5.60;;
28822;SDS011;15961;54.678;9.110;2022-08-20T22:47:58;11.27;;;5.82;;
28822;SDS011;15961;54.678;9.110;2022-08-20T22:50:24;17.42;;;7.97;;
28822;SDS011;15961;54.678;9.110;2022-08-20T22:52:50;14.20;;;6.18;;
28822;SDS011;15961;54.678;9.110;2022-08-20T22:55:16;18.25;;;6.60;;
28822;SDS011;15961;54.678;9.110;2022-08-20T22:57:42;11.13;;;6.22;;
28822;SDS011;15961;54.678;9.110;2022-08-20T23:00:10;10.30;;;5.85;;
28822;SDS011;15961;54.678;9.110;2022-08-20T23:02:38;10.75;;;5.18;;
28822;SDS011;15961;54.678;9.110;2022-08-20T23:05:05;11.85;;;6.30;;
28822;SDS011;15961;54.678;9.110;2022-08-20T23:07:32;11.63;;;5.80;;